Time;durP1;ratioP1;P1;durP2;ratioP2;P2;SDS_P1;SDS_P2;PMS_P1;PMS_P2;Temp;Humidity;BMP_temperature;BMP_pressure;BME280_temperature;BME280_humidity;BME280_pressure;Samples;Min_cycle;Max_cycle;Signal;HPM_P1;HPM_P2
2022/06/14 00:02:56;;;;;;;6.00;1.53;;;11.00;99.90;;;;;;5014853;28;20208;-44
2022/06/14 00:05:22;;;;;;;3.33;1.27;;;11.00;99.90;;;;;;5014610;28;20174;-44
2022/06/14 00:07:47;;;;;;;4.50;1.07;;;10.90;99.90;;;;;;5014424;28;20182;-43
2022/06/14 00:10:13;;;;;;;4.00;1.20;;;10.80;99.90;;;;;;5014682;28;20173;-44
2022/06/14 00:12:39;;;;;;;2.47;1.00;;;10.70;99.90;;;;;;5018276;28;20209;-46
2022/06/14 00:15:05;;;;;;;2.30;0.97;;;10.70;99.90;;;;;;5020008;28;20600;-44
2022/06/14 00:17:30;;;;;;;1.90;0.93;;;10.60;99.90;;;;;;5020742;28;20315;-45
2022/06/14 00:19:56;;;;;;;4.63;1.40;;;10.60;99.90;;;;;;5014927;28;20193;-45
2022/06/14 00:22:22;;;;;;;3.23;1.10;;;10.50;99.90;;;;;;5014858;28;20186;-44
2022/06/14 00:24:47;;;;;;;3.90;1.20;;;10.50;99.90;;;;;;5014515;28;20184;-44
2022/06/14 00:27:13;;;;;;;2.67;1.20;;;10.50;99.90;;;;;;5013916;28;20268;-42
2022/06/14 00:29:38;;;;;;;1.87;0.80;;;10.40;99.90;;;;;;5014109;28;20196;-43
2022/06/14 00:32:04;;;;;;;2.67;1.13;;;10.40;99.90;;;;;;5014626;28;20256;-42
2022/06/14 00:34:30;;;;;;;2.43;1.07;;;10.40;99.90;;;;;;5014409;28;20186;-41
2022/06/14 00:36:56;;;;;;;2.03;1.03;;;10.30;99.90;;;;;;5014030;28;20177;-42
2022/06/14 00:39:22;;;;;;;3.60;1.10;;;10.30;99.90;;;;;;5014070;28;20194;-42
2022/06/14 00:41:54;;;;;;;3.27;1.07;;;10.20;99.90;;;;;;5014135;28;20192;-42
2022/06/14 00:44:26;;;;;;;3.27;1.20;;;10.20;99.90;;;;;;5014515;28;20201;-42
2022/06/14 00:47:20;;;;;;;5.43;1.30;;;10.10;99.90;;;;;;5014553;28;20692;-43
2022/06/14 00:49:56;;;;;;;6.50;1.60;;;10.10;99.90;;;;;;5005498;28;20208;-42
2022/06/14 00:52:49;;;;;;;2.60;1.20;;;10.00;99.90;;;;;;5013788;28;20246;-43
2022/06/14 00:55:40;;;;;;;2.43;1.20;;;10.00;99.90;;;;;;5014039;28;20610;-42
2022/06/14 00:58:32;;;;;;;3.50;1.30;;;9.90;99.90;;;;;;5014232;28;20200;-42
2022/06/14 01:01:01;;;;;;;3.07;1.20;;;9.80;99.90;;;;;;5009286;28;20197;-42
2022/06/14 01:03:39;;;;;;;3.90;1.07;;;9.80;99.90;;;;;;5013723;28;20195;-42
2022/06/14 01:06:17;;;;;;;3.23;1.50;;;9.80;99.90;;;;;;5013727;28;20169;-42
2022/06/14 01:08:56;;;;;;;3.47;1.10;;;9.70;99.90;;;;;;5013611;28;20205;-41
2022/06/14 01:11:30;;;;;;;2.27;1.17;;;9.70;99.90;;;;;;5014242;28;20190;-41
2022/06/14 01:13:56;;;;;;;3.97;1.27;;;9.60;99.90;;;;;;5013667;28;20229;-41
2022/06/14 01:16:22;;;;;;;3.07;1.37;;;9.60;99.90;;;;;;5013485;28;20192;-42
2022/06/14 01:18:48;;;;;;;4.00;1.30;;;9.50;99.90;;;;;;5013507;28;20239;-41
2022/06/14 01:21:15;;;;;;;3.70;1.63;;;9.50;99.90;;;;;;5013870;28;20208;-43
2022/06/14 01:23:41;;;;;;;2.93;1.60;;;9.40;99.90;;;;;;4996323;28;20193;-41
2022/06/14 01:26:20;;;;;;;4.93;1.57;;;9.40;99.90;;;;;;5013643;28;20538;-43
2022/06/14 01:28:50;;;;;;;5.70;1.63;;;9.30;99.90;;;;;;5013384;28;20611;-42
2022/06/14 01:31:18;;;;;;;3.53;1.60;;;9.30;99.90;;;;;;5013977;28;20199;-42
2022/06/14 01:33:47;;;;;;;4.67;1.40;;;9.30;99.90;;;;;;5013604;28;20185;-43
2022/06/14 01:36:22;;;;;;;3.00;1.73;;;9.20;99.90;;;;;;5013341;28;20762;-40
2022/06/14 01:38:49;;;;;;;4.17;1.47;;;9.10;99.90;;;;;;5015344;28;20556;-40
2022/06/14 01:41:39;;;;;;;3.33;1.40;;;9.10;99.90;;;;;;5017460;28;20191;-42
2022/06/14 01:44:44;;;;;;;3.07;1.53;;;9.10;99.90;;;;;;5017674;28;20183;-44
2022/06/14 01:47:31;;;;;;;4.77;1.23;;;9.10;99.90;;;;;;5017093;28;20204;-42
2022/06/14 01:53:17;;;;;;;2.70;1.50;;;8.90;99.90;;;;;;5017123;28;20580;-42
2022/06/14 01:56:05;;;;;;;2.77;1.37;;;8.90;99.90;;;;;;5016980;28;20215;-39
2022/06/14 01:59:03;;;;;;;2.23;1.20;;;8.80;99.90;;;;;;5016896;28;20214;-43
2022/06/14 02:01:32;;;;;;;3.90;1.57;;;8.80;99.90;;;;;;5017161;28;20173;-42
2022/06/14 02:07:18;;;;;;;5.00;1.50;;;8.80;99.90;;;;;;5017189;28;20170;-42
2022/06/14 02:09:51;;;;;;;3.70;1.40;;;8.80;99.90;;;;;;5016954;28;20231;-41
2022/06/14 02:12:32;;;;;;;2.93;1.20;;;8.70;99.90;;;;;;5016723;28;20248;-40
2022/06/14 02:15:05;;;;;;;3.53;1.83;;;8.70;99.90;;;;;;5016976;28;20594;-43
2022/06/14 02:17:41;;;;;;;1.80;1.00;;;8.60;99.90;;;;;;5016639;28;20195;-41
2022/06/14 02:20:21;;;;;;;3.30;1.33;;;8.60;99.90;;;;;;5016772;28;20179;-42
2022/06/14 02:22:53;;;;;;;2.57;1.57;;;8.60;99.90;;;;;;5016773;28;20208;-41
2022/06/14 02:25:41;;;;;;;3.37;1.57;;;8.50;99.90;;;;;;5016344;28;20625;-42
2022/06/14 02:28:17;;;;;;;2.60;1.30;;;8.50;99.90;;;;;;5016246;28;20205;-43
2022/06/14 02:30:55;;;;;;;3.50;1.60;;;8.50;99.90;;;;;;5016555;28;20158;-41
2022/06/14 02:33:29;;;;;;;3.70;1.50;;;8.50;99.90;;;;;;5016513;28;20179;-43
2022/06/14 02:36:09;;;;;;;3.23;1.70;;;8.50;99.90;;;;;;5016352;28;20189;-42
2022/06/14 02:38:42;;;;;;;4.30;1.47;;;8.40;99.90;;;;;;5016243;28;20197;-42
2022/06/14 02:41:25;;;;;;;3.13;1.57;;;8.40;99.90;;;;;;5016362;28;20193;-41
2022/06/14 02:44:03;;;;;;;2.33;1.53;;;8.40;99.90;;;;;;5016080;28;20188;-42
2022/06/14 02:46:38;;;;;;;3.87;1.43;;;8.30;99.90;;;;;;5016323;28;20177;-43
2022/06/14 02:49:19;;;;;;;3.30;1.80;;;8.30;99.90;;;;;;5015433;28;20276;-41
2022/06/14 02:51:56;;;;;;;6.47;1.87;;;8.30;99.90;;;;;;4998176;28;20218;-43
2022/06/14 02:54:53;;;;;;;3.57;1.63;;;8.20;99.90;;;;;;5016182;28;20166;-44
2022/06/14 02:57:32;;;;;;;2.90;1.13;;;8.20;99.90;;;;;;5016035;28;20167;-41
2022/06/14 03:00:10;;;;;;;2.57;1.40;;;8.20;99.90;;;;;;5015843;28;20276;-43
2022/06/14 03:02:43;;;;;;;2.73;1.43;;;8.10;99.90;;;;;;5015737;28;20322;-42
2022/06/14 03:05:33;;;;;;;3.20;1.50;;;8.10;99.90;;;;;;5015991;28;20606;-42
2022/06/14 03:08:09;;;;;;;4.10;1.87;;;8.00;99.90;;;;;;5016605;28;20192;-40
2022/06/14 03:11:02;;;;;;;2.23;1.40;;;8.00;99.90;;;;;;5015802;28;20177;-39
2022/06/14 03:13:53;;;;;;;3.70;1.90;;;8.00;99.90;;;;;;5015773;28;20181;-39
2022/06/14 03:16:51;;;;;;;5.23;1.67;;;8.00;99.90;;;;;;5015592;28;20280;-40
2022/06/14 03:19:22;;;;;;;3.20;1.23;;;8.00;99.90;;;;;;5015773;28;20202;-38
2022/06/14 03:22:05;;;;;;;2.93;1.40;;;7.90;99.90;;;;;;5015528;28;20643;-37
2022/06/14 03:24:37;;;;;;;4.37;1.50;;;7.90;99.90;;;;;;5015841;28;20180;-37
2022/06/14 03:27:17;;;;;;;4.27;1.70;;;7.90;99.90;;;;;;5015566;28;20174;-36
2022/06/14 03:29:59;;;;;;;3.00;1.50;;;7.80;99.90;;;;;;5015334;28;20588;-36
2022/06/14 03:32:45;;;;;;;5.67;1.50;;;7.80;99.90;;;;;;5015500;28;20201;-38
2022/06/14 03:35:27;;;;;;;1.87;1.20;;;7.80;99.90;;;;;;5015627;28;20166;-37
2022/06/14 03:37:54;;;;;;;4.43;1.30;;;7.70;99.90;;;;;;5015455;28;20197;-38
2022/06/14 03:40:23;;;;;;;2.87;1.53;;;7.70;99.90;;;;;;5015399;28;20653;-39
2022/06/14 03:42:48;;;;;;;5.57;1.70;;;7.70;99.90;;;;;;5027968;28;20236;-39
2022/06/14 03:45:19;;;;;;;4.30;1.87;;;7.60;99.90;;;;;;5034865;28;20197;-38
2022/06/14 03:47:44;;;;;;;3.67;1.57;;;7.70;99.90;;;;;;5018478;28;20181;-38
2022/06/14 03:50:26;;;;;;;2.97;2.00;;;7.60;99.90;;;;;;5015163;28;20204;-39
2022/06/14 03:53:11;;;;;;;4.17;1.97;;;7.60;99.90;;;;;;5014862;28;20669;-39
2022/06/14 03:56:09;;;;;;;4.60;1.90;;;7.70;99.90;;;;;;5015153;28;20170;-38
2022/06/14 03:58:43;;;;;;;3.10;1.90;;;7.60;99.90;;;;;;5015256;28;20216;-36
2022/06/14 04:01:15;;;;;;;3.50;1.63;;;7.60;99.90;;;;;;5014051;28;20181;-36
2022/06/14 04:04:08;;;;;;;3.40;1.80;;;7.60;99.90;;;;;;5015094;28;20208;-39
2022/06/14 04:07:11;;;;;;;3.90;1.60;;;7.60;99.90;;;;;;5015555;28;20578;-36
2022/06/14 04:10:04;;;;;;;4.40;1.80;;;7.60;99.90;;;;;;4973920;28;20714;-37
2022/06/14 04:12:46;;;;;;;4.97;1.90;;;7.60;99.90;;;;;;5014183;28;20229;-40
2022/06/14 04:15:36;;;;;;;2.23;1.67;;;7.60;99.90;;;;;;5015983;28;20565;-38
2022/06/14 04:18:34;;;;;;;3.40;1.70;;;7.70;99.90;;;;;;5016256;28;20239;-37
2022/06/14 04:20:57;;;;;;;7.00;1.93;;;7.70;99.90;;;;;;5021269;28;20190;-38
2022/06/14 04:23:50;;;;;;;3.33;1.93;;;7.80;99.90;;;;;;5021906;28;20178;-39
2022/06/14 04:26:51;;;;;;;3.53;2.30;;;7.80;99.90;;;;;;5019076;28;20201;-39
2022/06/14 04:29:32;;;;;;;5.33;2.37;;;7.90;99.90;;;;;;5015167;28;20224;-38
2022/06/14 04:32:17;;;;;;;4.57;2.27;;;7.90;99.90;;;;;;5014534;28;20205;-36
2022/06/14 04:35:00;;;;;;;3.40;2.40;;;8.00;99.90;;;;;;5014812;28;20170;-36
2022/06/14 04:37:31;;;;;;;5.50;3.23;;;8.00;99.90;;;;;;5014175;28;20626;-39
2022/06/14 04:40:03;;;;;;;6.63;2.83;;;8.10;99.90;;;;;;5014385;28;20547;-38
2022/06/14 04:42:50;;;;;;;9.77;3.03;;;8.10;99.90;;;;;;4996566;28;20189;-37
2022/06/14 04:45:22;;;;;;;4.67;3.03;;;8.20;99.90;;;;;;5014339;28;20610;-37
2022/06/14 04:48:04;;;;;;;6.27;3.23;;;8.30;99.90;;;;;;5014172;28;20216;-39
2022/06/14 04:50:37;;;;;;;9.20;3.40;;;8.30;99.90;;;;;;5013905;28;20170;-39
2022/06/14 04:53:09;;;;;;;5.60;3.03;;;8.50;99.90;;;;;;5013929;28;20170;-38
2022/06/14 04:55:42;;;;;;;8.30;3.50;;;8.60;99.90;;;;;;5013721;28;20166;-39
2022/06/14 04:58:36;;;;;;;8.60;3.33;;;8.60;99.90;;;;;;5013797;28;20661;-39
2022/06/14 05:01:07;;;;;;;8.93;3.97;;;8.70;99.90;;;;;;5014048;28;20169;-39
2022/06/14 05:03:45;;;;;;;6.67;3.47;;;8.80;99.90;;;;;;5013774;28;20713;-37
2022/06/14 05:06:27;;;;;;;6.97;3.93;;;8.90;99.90;;;;;;5013755;28;20260;-36
2022/06/14 05:09:12;;;;;;;15.83;4.60;;;8.90;99.90;;;;;;5013927;28;20197;-38
2022/06/14 05:11:45;;;;;;;12.90;5.30;;;9.00;99.90;;;;;;5013855;28;20288;-38
2022/06/14 05:14:27;;;;;;;8.67;4.50;;;9.10;99.90;;;;;;5013983;28;20195;-38
2022/06/14 05:17:06;;;;;;;8.50;4.20;;;9.20;99.90;;;;;;5014557;28;20263;-39
2022/06/14 05:20:00;;;;;;;7.83;4.50;;;9.30;99.90;;;;;;5010615;23;20244;-41
2022/06/14 05:22:47;;;;;;;10.63;4.27;;;9.40;99.90;;;;;;5010917;28;20201;-40
2022/06/14 05:25:14;;;;;;;12.10;4.63;;;9.50;99.90;;;;;;5013688;28;20162;-39
2022/06/14 05:27:55;;;;;;;7.17;3.97;;;9.60;99.90;;;;;;5013494;28;20189;-41
2022/06/14 05:30:47;;;;;;;9.53;3.97;;;9.70;99.90;;;;;;5013823;28;20570;-40
2022/06/14 05:33:37;;;;;;;7.63;4.20;;;9.80;99.90;;;;;;5013579;28;20644;-39
2022/06/14 05:36:22;;;;;;;10.00;4.70;;;10.00;99.90;;;;;;5003481;28;20535;-41
2022/06/14 05:39:21;;;;;;;12.37;5.23;;;10.10;99.90;;;;;;5013235;28;20272;-41
2022/06/14 05:41:52;;;;;;;10.10;5.20;;;10.20;99.90;;;;;;5009124;28;20534;-41
2022/06/14 05:44:28;;;;;;;9.13;5.03;;;10.40;99.90;;;;;;5013460;28;20577;-40
2022/06/14 05:46:56;;;;;;;7.73;4.43;;;10.50;99.90;;;;;;5013729;28;20161;-40
2022/06/14 05:49:29;;;;;;;9.03;4.53;;;10.70;99.90;;;;;;5014142;28;20239;-41
2022/06/14 05:52:05;;;;;;;10.07;4.50;;;10.80;99.90;;;;;;5013607;28;20202;-38
2022/06/14 05:54:45;;;;;;;11.57;4.80;;;10.90;99.90;;;;;;5014312;28;20517;-40
2022/06/14 05:57:17;;;;;;;12.93;5.03;;;11.10;99.90;;;;;;5015334;28;20181;-39
2022/06/14 05:59:56;;;;;;;8.03;4.63;;;11.20;99.90;;;;;;5014189;28;20194;-40
2022/06/14 06:02:37;;;;;;;9.37;4.47;;;11.30;99.90;;;;;;5012992;28;20629;-41
2022/06/14 06:05:43;;;;;;;10.77;4.43;;;11.40;99.90;;;;;;5013274;28;20170;-42
2022/06/14 06:08:49;;;;;;;14.37;4.77;;;11.60;99.90;;;;;;5013140;28;20197;-36
2022/06/14 06:11:36;;;;;;;6.17;4.07;;;11.80;99.90;;;;;;5002221;28;20217;-40
2022/06/14 06:14:17;;;;;;;14.33;4.60;;;12.10;99.90;;;;;;5013128;28;20179;-39
2022/06/14 06:19:43;;;;;;;11.53;5.07;;;12.70;99.90;;;;;;5013001;28;20293;-40
2022/06/14 06:22:18;;;;;;;14.93;4.30;;;13.00;99.90;;;;;;5012741;28;20184;-41
2022/06/14 06:24:57;;;;;;;10.37;5.20;;;13.10;99.90;;;;;;5014331;28;20182;-41
2022/06/14 06:27:40;;;;;;;10.90;4.93;;;13.30;99.90;;;;;;5016466;28;20529;-41
2022/06/14 06:30:15;;;;;;;13.03;5.00;;;13.30;99.90;;;;;;5016558;28;20212;-40
2022/06/14 06:32:42;;;;;;;10.13;4.43;;;13.40;99.90;;;;;;5016400;28;20192;-42
2022/06/14 06:35:09;;;;;;;8.27;4.13;;;13.40;99.90;;;;;;5016355;28;20170;-41
2022/06/14 06:37:44;;;;;;;10.30;3.73;;;13.60;99.90;;;;;;5016868;28;20195;-41
2022/06/14 06:40:20;;;;;;;15.70;4.30;;;13.90;99.90;;;;;;5018413;28;20165;-40
2022/06/14 06:42:58;;;;;;;9.27;3.60;;;14.00;99.90;;;;;;5016125;28;20192;-40
2022/06/14 06:45:30;;;;;;;12.47;4.03;;;14.20;99.90;;;;;;5016278;28;20252;-41
2022/06/14 06:48:15;;;;;;;8.57;3.33;;;14.40;99.90;;;;;;5015965;28;20665;-40
2022/06/14 06:50:45;;;;;;;7.73;3.50;;;14.50;99.90;;;;;;4998330;28;20584;-41
2022/06/14 06:53:18;;;;;;;7.87;3.67;;;14.60;99.90;;;;;;5016084;28;20178;-42
2022/06/14 06:55:56;;;;;;;14.43;4.00;;;14.60;99.90;;;;;;5016046;28;20170;-40
2022/06/14 06:58:25;;;;;;;18.17;4.30;;;14.90;99.90;;;;;;5015944;28;20232;-40
2022/06/14 07:00:57;;;;;;;10.50;4.23;;;15.20;99.90;;;;;;4998169;28;20720;-40
2022/06/14 07:03:44;;;;;;;9.57;3.60;;;15.60;99.90;;;;;;5015874;28;20203;-39
2022/06/14 07:06:21;;;;;;;14.00;3.87;;;16.00;99.90;;;;;;5015766;28;20181;-40
2022/06/14 07:08:55;;;;;;;12.37;3.50;;;16.30;99.90;;;;;;5015592;28;20596;-41
2022/06/14 07:11:25;;;;;;;9.67;3.60;;;16.60;99.90;;;;;;5015802;28;20597;-39
2022/06/14 07:13:56;;;;;;;10.23;3.40;;;16.80;99.90;;;;;;5015517;28;20562;-39
2022/06/14 07:16:39;;;;;;;9.93;3.20;;;17.10;99.90;;;;;;5015800;28;20229;-38
2022/06/14 07:19:15;;;;;;;7.30;3.17;;;17.00;99.90;;;;;;5015668;28;20201;-40
2022/06/14 07:21:47;;;;;;;14.87;3.60;;;16.90;99.90;;;;;;5015819;28;20500;-41
2022/06/14 07:24:25;;;;;;;9.07;3.83;;;16.80;99.90;;;;;;5015503;28;20170;-37
2022/06/14 07:26:57;;;;;;;11.00;3.27;;;16.70;99.90;;;;;;5015673;28;20178;-39
2022/06/14 07:29:43;;;;;;;8.50;3.07;;;16.80;99.90;;;;;;5015215;28;20197;-38
2022/06/14 07:32:17;;;;;;;13.60;3.37;;;16.80;99.90;;;;;;5015413;28;20544;-37
2022/06/14 07:34:45;;;;;;;12.80;3.27;;;16.80;99.90;;;;;;5015576;28;20204;-39
2022/06/14 07:38:03;;;;;;;10.93;3.37;;;17.00;99.90;;;;;;5014193;28;20642;-40
2022/06/14 07:40:35;;;;;;;6.77;3.03;;;17.40;99.90;;;;;;4936060;29;20183;-38
2022/06/14 07:43:23;;;;;;;11.70;3.30;;;17.50;99.90;;;;;;4935644;29;20263;-40
2022/06/14 07:45:50;;;;;;;10.47;2.93;;;17.50;99.90;;;;;;4995208;28;20673;-40
2022/06/14 07:48:18;;;;;;;7.33;2.67;;;17.60;99.90;;;;;;5014951;28;20680;-43
2022/06/14 07:51:21;;;;;;;10.43;3.00;;;17.60;99.90;;;;;;5015113;28;20224;-39
2022/06/14 07:54:12;;;;;;;6.90;2.67;;;17.50;99.90;;;;;;5002571;28;20221;-42
2022/06/14 07:56:48;;;;;;;5.73;2.20;;;17.50;99.90;;;;;;4997167;28;20261;-38
2022/06/14 07:59:21;;;;;;;6.07;2.63;;;17.70;99.90;;;;;;5014727;28;20661;-40
2022/06/14 08:02:04;;;;;;;9.13;2.43;;;18.10;99.90;;;;;;5014570;28;20654;-38
2022/06/14 08:04:37;;;;;;;9.17;2.80;;;18.40;99.90;;;;;;5014556;28;20162;-41
2022/06/14 08:07:09;;;;;;;10.20;2.90;;;18.60;99.90;;;;;;5014586;28;20303;-40
2022/06/14 08:10:00;;;;;;;12.90;3.07;;;19.00;99.90;;;;;;5014369;28;20244;-39
2022/06/14 08:12:37;;;;;;;6.83;2.40;;;19.30;99.90;;;;;;5015104;28;20280;-40
2022/06/14 08:15:21;;;;;;;4.73;2.00;;;19.30;99.90;;;;;;5014697;28;20158;-42
2022/06/14 08:18:01;;;;;;;4.57;2.20;;;18.90;99.90;;;;;;5014522;28;20173;-41
2022/06/14 08:20:30;;;;;;;7.43;2.30;;;18.70;99.90;;;;;;5016269;28;20295;-39
2022/06/14 08:23:00;;;;;;;6.47;2.33;;;18.50;99.90;;;;;;5014299;28;20181;-39
2022/06/14 08:25:32;;;;;;;9.33;2.47;;;18.40;99.90;;;;;;5014428;28;20166;-41
2022/06/14 08:28:07;;;;;;;6.40;2.10;;;18.50;99.90;;;;;;5014365;28;20182;-39
2022/06/14 08:30:51;;;;;;;6.90;1.90;;;18.40;99.90;;;;;;5014429;28;20165;-39
2022/06/14 08:33:23;;;;;;;5.90;2.00;;;18.60;99.90;;;;;;4998695;28;20169;-41
2022/06/14 08:35:52;;;;;;;6.73;2.00;;;19.00;99.90;;;;;;5014066;28;20271;-40
2022/06/14 08:38:21;;;;;;;4.53;1.50;;;19.40;99.90;;;;;;5013921;28;20273;-42
2022/06/14 08:41:24;;;;;;;4.90;1.73;;;19.80;99.90;;;;;;5014012;28;20545;-42
2022/06/14 08:43:55;;;;;;;6.00;1.87;;;20.00;99.90;;;;;;4996222;28;20182;-36
2022/06/14 08:46:20;;;;;;;4.07;1.93;;;20.30;99.90;;;;;;5014136;28;20271;-40
2022/06/14 08:49:08;;;;;;;6.23;2.27;;;20.40;99.90;;;;;;5013647;28;20222;-40
2022/06/14 08:52:00;;;;;;;7.17;2.20;;;20.30;99.90;;;;;;4996133;28;20684;-39
2022/06/14 08:54:32;;;;;;;8.53;2.20;;;20.30;99.90;;;;;;5013738;28;20680;-42
2022/06/14 08:57:07;;;;;;;12.63;1.80;;;20.40;99.90;;;;;;5013841;28;20166;-41
2022/06/14 09:00:04;;;;;;;4.93;1.83;;;20.30;99.90;;;;;;4996009;28;20208;-39
2022/06/14 09:02:58;;;;;;;7.27;1.70;;;20.40;99.90;;;;;;5014259;28;20162;-42
2022/06/14 09:05:49;;;;;;;9.77;2.10;;;20.50;99.90;;;;;;5013660;28;20563;-43
2022/06/14 09:08:30;;;;;;;5.90;2.10;;;20.60;99.90;;;;;;4976627;28;20217;-40
2022/06/14 09:11:41;;;;;;;5.23;2.17;;;20.70;99.90;;;;;;5013435;28;20177;-40
2022/06/14 09:14:26;;;;;;;5.73;2.00;;;20.60;99.90;;;;;;5013489;28;20177;-38
2022/06/14 09:17:27;;;;;;;6.63;1.67;;;20.60;99.90;;;;;;5014341;28;20493;-37
2022/06/14 09:20:10;;;;;;;6.67;2.00;;;20.20;99.90;;;;;;5013219;28;20692;-37
2022/06/14 09:22:45;;;;;;;7.10;2.23;;;20.00;99.90;;;;;;5013746;28;20170;-40
2022/06/14 09:25:34;;;;;;;4.73;1.50;;;19.90;99.90;;;;;;5013687;28;20166;-38
2022/06/14 09:28:57;;;;;;;8.50;1.60;;;19.90;99.90;;;;;;5013599;28;20204;-41
2022/06/14 09:31:30;;;;;;;9.87;1.87;;;20.10;99.90;;;;;;4926093;29;20250;-40
2022/06/14 09:34:14;;;;;;;5.03;1.70;;;20.20;99.90;;;;;;5013760;28;20257;-39
2022/06/14 09:37:07;;;;;;;6.20;1.60;;;20.20;99.90;;;;;;5013562;28;20528;-40
2022/06/14 09:39:50;;;;;;;7.00;2.30;;;20.20;99.90;;;;;;5014265;28;20292;-41
2022/06/14 09:42:42;;;;;;;6.63;1.70;;;20.60;99.90;;;;;;5013916;28;20166;-42
2022/06/14 09:45:30;;;;;;;3.43;1.57;;;20.80;99.90;;;;;;5013515;28;20162;-40
2022/06/14 09:48:28;;;;;;;9.40;1.80;;;21.00;99.90;;;;;;5013404;28;20244;-40
2022/06/14 09:51:09;;;;;;;2.97;1.30;;;21.10;99.90;;;;;;5013668;28;20174;-40
2022/06/14 09:54:07;;;;;;;5.20;1.70;;;21.10;99.90;;;;;;5013392;28;20664;-40
2022/06/14 09:57:00;;;;;;;4.63;1.77;;;21.20;99.90;;;;;;5013452;28;20561;-42
2022/06/14 09:59:44;;;;;;;4.57;1.70;;;21.20;99.90;;;;;;5014024;28;20665;-40
2022/06/14 10:02:25;;;;;;;6.37;1.93;;;21.00;99.90;;;;;;5016849;28;20174;-40
2022/06/14 10:05:18;;;;;;;4.87;1.70;;;20.80;99.90;;;;;;5017031;28;20197;-41
2022/06/14 10:08:03;;;;;;;4.93;1.70;;;20.70;99.90;;;;;;5016938;28;20181;-41
2022/06/14 10:10:32;;;;;;;7.33;1.77;;;20.60;99.90;;;;;;5016649;28;20170;-42
2022/06/14 10:13:36;;;;;;;6.77;2.17;;;20.50;99.90;;;;;;5016571;28;20205;-41
2022/06/14 10:16:20;;;;;;;6.53;1.60;;;20.50;99.90;;;;;;5016694;28;20166;-41
2022/06/14 10:19:13;;;;;;;7.73;2.30;;;20.90;99.90;;;;;;5016611;28;20665;-41
2022/06/14 10:21:57;;;;;;;5.10;2.23;;;20.80;99.90;;;;;;5016469;28;20212;-42
2022/06/14 10:24:37;;;;;;;8.13;3.17;;;20.70;99.90;;;;;;5016512;28;20178;-40
2022/06/14 10:30:39;;;;;;;4.53;2.10;;;20.50;99.90;;;;;;5016383;28;20725;-41
2022/06/14 10:33:29;;;;;;;8.30;2.10;;;20.60;99.90;;;;;;5016226;28;20665;-41
2022/06/14 10:36:13;;;;;;;3.73;2.00;;;20.80;99.90;;;;;;5016421;28;20566;-42
2022/06/14 10:39:13;;;;;;;3.93;1.80;;;20.70;99.90;;;;;;5016671;28;20676;-41
2022/06/14 10:41:44;;;;;;;3.83;2.00;;;21.00;99.90;;;;;;5016108;28;20257;-42
2022/06/14 10:44:20;;;;;;;6.87;2.23;;;21.30;99.90;;;;;;5016628;28;20170;-42
2022/06/14 10:47:02;;;;;;;8.43;3.07;;;21.40;99.90;;;;;;5016315;28;20289;-41
2022/06/14 10:49:57;;;;;;;6.83;2.50;;;21.50;99.90;;;;;;5016748;28;20201;-42
2022/06/14 10:52:46;;;;;;;5.43;2.53;;;21.30;99.90;;;;;;5015967;28;20205;-42
2022/06/14 10:55:15;;;;;;;8.83;2.80;;;21.50;99.90;;;;;;4998285;28;20178;-41
2022/06/14 10:57:46;;;;;;;5.50;2.87;;;21.50;99.90;;;;;;5015685;28;20196;-42
2022/06/14 11:00:22;;;;;;;6.63;3.13;;;21.60;99.90;;;;;;5015953;28;20578;-42
2022/06/14 11:03:19;;;;;;;9.17;3.57;;;21.60;99.90;;;;;;5016336;28;20614;-41
2022/06/14 11:06:21;;;;;;;6.93;3.00;;;21.80;99.90;;;;;;5016112;28;20177;-40
2022/06/14 11:08:53;;;;;;;4.90;2.40;;;21.90;99.90;;;;;;5015825;28;20616;-41
2022/06/14 11:11:26;;;;;;;7.80;2.70;;;22.00;99.90;;;;;;4997710;28;20201;-40
2022/06/14 11:14:13;;;;;;;5.17;2.30;;;22.20;99.90;;;;;;5015539;28;20162;-41
2022/06/14 11:17:04;;;;;;;6.10;2.70;;;22.20;99.90;;;;;;5015517;28;20158;-43
2022/06/14 11:19:39;;;;;;;6.73;2.80;;;22.00;99.90;;;;;;5015347;28;20227;-40
2022/06/14 11:22:39;;;;;;;7.27;2.90;;;21.70;99.90;;;;;;5015479;28;20166;-40
2022/06/14 11:25:23;;;;;;;5.60;3.00;;;21.40;99.90;;;;;;5015335;28;20618;-42
2022/06/14 11:27:48;;;;;;;5.23;2.43;;;21.50;99.90;;;;;;5015451;28;20581;-41
2022/06/14 11:30:44;;;;;;;7.97;3.33;;;21.40;99.90;;;;;;5015133;28;20664;-39
2022/06/14 11:33:15;;;;;;;5.27;3.10;;;21.50;99.90;;;;;;5015398;28;20197;-39
2022/06/14 11:35:58;;;;;;;5.47;3.10;;;21.40;99.90;;;;;;5015290;28;20272;-41
2022/06/14 11:38:51;;;;;;;7.43;3.15;;;21.50;99.90;;;;;;5015086;28;20193;-40
2022/06/14 11:41:21;;;;;;;7.05;3.22;;;21.50;99.90;;;;;;5015234;28;20575;-42
2022/06/14 11:44:08;;;;;;;5.13;3.00;;;21.50;99.90;;;;;;5015021;28;20158;-41
2022/06/14 11:46:58;;;;;;;9.98;3.05;;;21.50;99.90;;;;;;5015208;28;20166;-41
2022/06/14 11:49:27;;;;;;;7.20;2.93;;;21.70;99.90;;;;;;5015077;28;20204;-42
2022/06/14 11:52:10;;;;;;;9.57;2.70;;;21.80;99.90;;;;;;5014666;28;20676;-41
2022/06/14 11:54:36;;;;;;;6.22;3.30;;;21.90;99.90;;;;;;5015045;28;20162;-42
2022/06/14 11:57:25;;;;;;;9.67;3.30;;;21.90;99.90;;;;;;5014715;28;20257;-38
2022/06/14 11:59:56;;;;;;;8.48;3.17;;;21.80;99.90;;;;;;5014713;28;20201;-42
2022/06/14 12:02:55;;;;;;;3.28;2.60;;;21.70;99.90;;;;;;5015220;28;20177;-39
2022/06/14 12:06:08;;;;;;;6.30;3.20;;;21.80;99.90;;;;;;5014743;28;20559;-41
2022/06/14 12:09:00;;;;;;;9.95;3.40;;;21.90;99.90;;;;;;4979248;28;20255;-41
2022/06/14 12:11:31;;;;;;;9.30;3.40;;;22.10;99.90;;;;;;5014447;28;20197;-43
2022/06/14 12:14:09;;;;;;;5.72;3.00;;;22.40;99.90;;;;;;5015816;28;20184;-43
2022/06/14 12:16:46;;;;;;;4.97;2.38;;;22.70;99.90;;;;;;5014684;28;20170;-43
2022/06/14 12:19:26;;;;;;;6.60;2.83;;;22.90;99.90;;;;;;4997293;28;20247;-42
2022/06/14 12:27:48;;;;;;;8.20;2.85;;;23.20;99.90;;;;;;5014395;28;20213;-41
2022/06/14 12:30:17;;;;;;;7.13;2.53;;;23.40;99.90;;;;;;5014135;28;20173;-40
2022/06/14 12:32:55;;;;;;;7.65;2.72;;;23.70;99.90;;;;;;4996352;28;20205;-41
2022/06/14 12:35:26;;;;;;;8.95;2.58;;;23.80;99.90;;;;;;4996526;28;20181;-41
2022/06/14 12:37:51;;;;;;;6.50;2.35;;;23.80;99.90;;;;;;5014343;28;20185;-42
2022/06/14 12:40:43;;;;;;;5.38;2.15;;;23.70;99.90;;;;;;5014180;28;20633;-42
2022/06/14 12:43:25;;;;;;;4.53;2.13;;;23.60;98.50;;;;;;4996389;28;20177;-41
2022/06/14 12:45:57;;;;;;;9.57;2.78;;;23.60;99.90;;;;;;5015421;28;20181;-42
2022/06/14 12:48:59;;;;;;;8.35;2.05;;;23.70;98.70;;;;;;5014050;28;20202;-43
2022/06/14 12:51:30;;;;;;;6.93;2.25;;;23.60;99.90;;;;;;5013817;28;20189;-42
2022/06/14 12:54:25;;;;;;;5.57;2.63;;;23.90;99.90;;;;;;5014117;28;20168;-40
2022/06/14 12:57:14;;;;;;;3.95;2.33;;;23.80;98.90;;;;;;4983408;28;20186;-39
2022/06/14 12:59:58;;;;;;;9.50;2.35;;;23.80;99.90;;;;;;5014473;28;20527;-39
2022/06/14 13:02:56;;;;;;;10.05;2.58;;;24.00;99.90;;;;;;5013637;28;20732;-39
2022/06/14 13:05:28;;;;;;;7.07;3.00;;;23.90;99.90;;;;;;5013256;28;20252;-42
2022/06/14 13:08:19;;;;;;;4.68;2.25;;;24.00;99.90;;;;;;5013739;28;20166;-42
2022/06/14 13:11:03;;;;;;;5.40;2.53;;;24.00;99.90;;;;;;5013561;28;20204;-42
2022/06/14 13:13:45;;;;;;;6.88;2.38;;;24.10;99.90;;;;;;5013640;28;20271;-42
2022/06/14 13:16:35;;;;;;;9.10;2.70;;;24.00;98.90;;;;;;5013942;28;20166;-41
2022/06/14 13:19:33;;;;;;;9.98;3.13;;;23.90;99.90;;;;;;5013945;28;20202;-41
2022/06/14 13:22:20;;;;;;;8.15;2.53;;;23.80;98.80;;;;;;5013736;28;20630;-40
2022/06/14 13:25:04;;;;;;;9.57;2.60;;;23.90;99.90;;;;;;5013515;28;20605;-42
2022/06/14 13:27:48;;;;;;;5.90;2.53;;;24.00;99.90;;;;;;5013517;28;20177;-43
2022/06/14 13:30:30;;;;;;;8.68;2.53;;;24.30;99.90;;;;;;5013686;28;20208;-42
2022/06/14 13:33:23;;;;;;;7.45;2.38;;;24.80;99.90;;;;;;5014359;28;20247;-42
2022/06/14 13:36:26;;;;;;;6.95;2.47;;;25.10;99.90;;;;;;5017666;28;20162;-42
2022/06/14 13:39:00;;;;;;;6.28;2.35;;;25.30;99.90;;;;;;5018067;28;20193;-42
2022/06/14 13:41:37;;;;;;;5.03;2.35;;;25.40;99.90;;;;;;5017915;28;20319;-42
2022/06/14 13:44:03;;;;;;;7.07;2.60;;;25.70;99.90;;;;;;5018380;28;20248;-42
2022/06/14 13:46:31;;;;;;;6.70;2.28;;;26.00;99.90;;;;;;5017230;28;20653;-41
2022/06/14 13:49:15;;;;;;;4.22;1.98;;;26.00;99.90;;;;;;5017130;28;20264;-41
2022/06/14 13:52:01;;;;;;;6.10;2.30;;;25.80;95.30;;;;;;5017825;28;20208;-42
2022/06/14 13:54:52;;;;;;;6.32;2.45;;;25.40;95.70;;;;;;5017601;28;20158;-41
2022/06/14 13:57:37;;;;;;;7.03;2.38;;;25.30;99.50;;;;;;5017317;28;20257;-41
2022/06/14 14:00:19;;;;;;;4.22;2.35;;;25.40;98.30;;;;;;5017720;28;20201;-43
2022/06/14 14:03:07;;;;;;;5.65;2.58;;;25.30;95.10;;;;;;5016922;28;20174;-42
2022/06/14 14:05:38;;;;;;;9.20;2.85;;;25.20;95.30;;;;;;5017041;28;20239;-43
2022/06/14 14:08:37;;;;;;;6.95;2.38;;;25.20;97.60;;;;;;5017342;28;20193;-42
2022/06/14 14:11:18;;;;;;;6.55;2.53;;;25.20;95.70;;;;;;4999410;28;20576;-41
2022/06/14 14:14:10;;;;;;;6.78;2.55;;;24.90;95.60;;;;;;5016696;28;20168;-40
2022/06/14 14:16:45;;;;;;;7.78;2.60;;;24.80;95.00;;;;;;5016903;28;20634;-42